Terminal Aerodrome Forecast
Issued by NWS

Home | Current Version | Previous Version | Text Only | Print | Product List | Glossary On
Versions: 1 2 3 4 5 6 7 8 9 10 11 12 13
863
FTUS46 KMTR 290542
TAFSTS
TAF
KSTS 290542Z 2906/3006 32006KT P6SM SKC
     FM291300 34004KT P6SM BKN010
     FM291600 32005KT P6SM SCT015
     FM291900 28008KT P6SM SKC
     FM292300 30013G19KT P6SM SKC=

USA.gov is the U.S. government's official web portal to all federal, state and local government web resources and services.